createdAt,value
2018-12-14T00:01:11.120Z,16.73
2018-12-14T00:03:39.671Z,16.43
2018-12-14T00:06:08.507Z,16.67
2018-12-14T00:08:37.461Z,16.27
2018-12-14T00:11:06.500Z,16.53
2018-12-14T00:13:35.628Z,16.40
2018-12-14T00:16:04.181Z,16.07
2018-12-14T00:18:32.703Z,16.67
2018-12-14T00:21:00.889Z,16.90
2018-12-14T00:23:29.415Z,16.33
2018-12-14T00:25:58.411Z,17.03
2018-12-14T00:28:27.950Z,16.87
2018-12-14T00:30:56.684Z,15.97
2018-12-14T00:33:24.820Z,16.73
2018-12-14T00:35:53.323Z,16.10
2018-12-14T00:38:21.392Z,15.07
2018-12-14T00:40:50.061Z,16.50
2018-12-14T00:43:18.695Z,17.13
2018-12-14T00:45:47.634Z,16.70
2018-12-14T00:48:16.159Z,16.10
2018-12-14T00:50:45.392Z,16.40
2018-12-14T00:53:14.673Z,17.93
2018-12-14T00:55:43.610Z,14.50
2018-12-14T00:58:12.874Z,16.47
2018-12-14T01:00:42.130Z,15.97
2018-12-14T01:03:12.336Z,16.30
2018-12-14T01:05:41.481Z,15.50
2018-12-14T01:08:11.155Z,16.43
2018-12-14T01:10:40.542Z,14.03
2018-12-14T01:13:09.457Z,16.27
2018-12-14T01:15:38.613Z,16.33
2018-12-14T01:18:07.658Z,16.13
2018-12-14T01:20:35.858Z,17.33
2018-12-14T01:23:04.503Z,14.47
2018-12-14T01:25:33.235Z,16.60
2018-12-14T01:28:01.865Z,17.27
2018-12-14T01:30:30.480Z,16.27
2018-12-14T01:32:59.345Z,17.07
2018-12-14T01:35:28.278Z,17.00
2018-12-14T01:37:56.804Z,14.30
2018-12-14T01:40:26.165Z,16.00
2018-12-14T01:42:54.352Z,15.77
2018-12-14T01:45:23.742Z,16.27
2018-12-14T01:47:52.257Z,15.60
2018-12-14T01:50:20.562Z,15.97
2018-12-14T01:52:49.068Z,14.70
2018-12-14T01:55:17.500Z,15.47
2018-12-14T01:57:45.739Z,16.17
2018-12-14T02:00:14.890Z,16.93
2018-12-14T02:02:42.928Z,16.87
2018-12-14T02:05:11.837Z,16.67
2018-12-14T02:07:40.468Z,14.60
2018-12-14T02:10:10.069Z,16.20
2018-12-14T02:12:38.623Z,16.10
2018-12-14T02:15:09.177Z,16.50
2018-12-14T02:17:38.429Z,16.70
2018-12-14T02:20:06.996Z,16.43
2018-12-14T02:22:35.466Z,14.03
2018-12-14T02:25:04.422Z,16.07
2018-12-14T02:27:34.699Z,15.77
2018-12-14T02:33:02.471Z,16.43
2018-12-14T02:35:31.583Z,16.67
2018-12-14T02:37:59.901Z,16.07
2018-12-14T02:40:28.382Z,14.63
2018-12-14T02:42:57.420Z,16.27
2018-12-14T02:45:26.577Z,15.97
2018-12-14T02:47:56.985Z,17.00
2018-12-14T02:50:25.484Z,16.40
2018-12-14T02:52:53.708Z,16.13
2018-12-14T02:55:24.650Z,15.60
2018-12-14T02:57:54.221Z,16.00
2018-12-14T03:00:22.680Z,16.10
2018-12-14T03:02:51.272Z,16.80
2018-12-14T03:05:19.568Z,15.57
2018-12-14T03:07:47.908Z,15.47
2018-12-14T03:10:16.434Z,16.50
2018-12-14T03:12:44.619Z,13.73
2018-12-14T03:15:13.795Z,16.03
2018-12-14T03:17:42.094Z,15.37
2018-12-14T03:20:10.545Z,15.87
2018-12-14T03:22:39.163Z,15.63
2018-12-14T03:25:07.561Z,15.33
2018-12-14T03:27:36.011Z,15.67
2018-12-14T03:30:05.470Z,15.17
2018-12-14T03:32:34.417Z,15.30
2018-12-14T03:35:03.039Z,15.83
2018-12-14T03:37:31.991Z,15.63
2018-12-14T03:40:00.618Z,16.30
2018-12-14T03:42:34.113Z,16.00
2018-12-14T03:45:00.477Z,14.70
2018-12-14T03:47:28.911Z,15.20
2018-12-14T03:49:57.529Z,15.60
2018-12-14T03:52:26.597Z,15.90
2018-12-14T03:54:55.017Z,15.43
2018-12-14T03:57:23.618Z,16.67
2018-12-14T03:59:51.884Z,14.63
2018-12-14T04:02:20.276Z,15.67
2018-12-14T04:04:49.017Z,15.20
2018-12-14T04:07:17.431Z,15.43
2018-12-14T04:09:46.278Z,15.40
2018-12-14T04:12:15.322Z,14.03
2018-12-14T04:14:43.456Z,15.47
2018-12-14T04:17:11.949Z,15.27
2018-12-14T04:19:40.482Z,14.67
2018-12-14T04:22:09.106Z,16.10
2018-12-14T04:24:37.579Z,16.93
2018-12-14T04:27:07.152Z,15.80
2018-12-14T04:29:37.608Z,14.10
2018-12-14T04:32:06.557Z,16.60
2018-12-14T04:34:35.507Z,17.63
2018-12-14T04:37:05.064Z,18.27
2018-12-14T04:39:36.409Z,17.17
2018-12-14T04:42:05.143Z,17.77
2018-12-14T04:44:34.311Z,14.70
2018-12-14T04:47:04.157Z,17.00
2018-12-14T04:49:32.809Z,16.50
2018-12-14T04:52:03.214Z,16.87
2018-12-14T04:54:32.371Z,16.80
2018-12-14T04:57:00.672Z,16.07
2018-12-14T04:59:28.767Z,15.90
2018-12-14T05:01:57.336Z,17.07
2018-12-14T05:04:25.462Z,17.27
2018-12-14T05:06:55.411Z,16.50
2018-12-14T05:09:24.125Z,17.07
2018-12-14T05:11:54.138Z,16.93
2018-12-14T05:14:23.392Z,16.10
2018-12-14T05:16:52.648Z,15.50
2018-12-14T05:19:20.758Z,17.27
2018-12-14T05:21:50.221Z,17.13
2018-12-14T05:24:18.539Z,16.23
2018-12-14T05:26:47.473Z,17.10
2018-12-14T05:29:16.010Z,17.30
2018-12-14T05:31:44.429Z,16.63
2018-12-14T05:34:13.062Z,16.97
2018-12-14T05:36:41.586Z,17.40
2018-12-14T05:39:10.526Z,17.23
2018-12-14T05:41:39.457Z,16.60
2018-12-14T05:44:08.938Z,17.20
2018-12-14T05:46:37.985Z,17.50
2018-12-14T05:49:08.494Z,16.57
2018-12-14T05:51:40.496Z,17.03
2018-12-14T05:54:08.886Z,16.70
2018-12-14T05:56:37.299Z,17.63
2018-12-14T05:59:05.425Z,16.97
2018-12-14T06:01:35.265Z,18.33
2018-12-14T06:04:03.720Z,17.37
2018-12-14T06:06:33.188Z,16.50
2018-12-14T06:09:02.334Z,17.13
2018-12-14T06:11:31.490Z,17.43
2018-12-14T06:14:00.061Z,17.70
2018-12-14T06:16:29.908Z,17.67
2018-12-14T06:18:58.016Z,17.47
2018-12-14T06:21:26.509Z,17.17
2018-12-14T06:23:56.312Z,17.37
2018-12-14T06:26:24.940Z,17.60
2018-12-14T06:28:53.362Z,17.53
2018-12-14T06:31:22.225Z,17.33
2018-12-14T06:33:51.121Z,18.07
2018-12-14T06:36:19.880Z,17.50
2018-12-14T06:38:48.304Z,17.43
2018-12-14T06:41:17.453Z,17.50
2018-12-14T06:43:46.501Z,18.13
2018-12-14T06:46:15.446Z,17.53
2018-12-14T06:48:45.224Z,17.83
2018-12-14T06:51:13.610Z,17.03
2018-12-14T06:53:41.817Z,17.03
2018-12-14T06:56:11.009Z,17.00
2018-12-14T06:58:39.642Z,17.37
2018-12-14T07:01:08.364Z,18.20
2018-12-14T07:03:37.206Z,17.43
2018-12-14T07:06:06.576Z,18.47
2018-12-14T07:08:35.389Z,17.80
2018-12-14T07:11:04.363Z,17.47
2018-12-14T07:13:32.673Z,17.43
2018-12-14T07:16:01.189Z,16.73
2018-12-14T07:18:29.312Z,18.47
2018-12-14T07:20:58.362Z,18.30
2018-12-14T07:23:26.605Z,17.50
2018-12-14T07:25:55.076Z,18.80
2018-12-14T07:28:23.489Z,16.00
2018-12-14T07:30:52.588Z,19.00
2018-12-14T07:33:21.603Z,18.33
2018-12-14T07:35:50.560Z,18.17
2018-12-14T07:38:19.544Z,18.43
2018-12-14T07:40:48.542Z,18.30
2018-12-14T07:43:17.181Z,17.37
2018-12-14T07:45:45.802Z,16.93
2018-12-14T07:48:14.197Z,18.73
2018-12-14T07:50:43.186Z,18.43
2018-12-14T07:53:11.588Z,17.50
2018-12-14T07:55:40.009Z,18.20
2018-12-14T07:58:08.624Z,18.13
2018-12-14T08:00:37.896Z,17.47
2018-12-14T08:03:07.544Z,17.43
2018-12-14T08:05:36.612Z,18.17
2018-12-14T08:08:06.396Z,18.53
2018-12-14T08:10:35.354Z,19.17
2018-12-14T08:13:04.597Z,17.63
2018-12-14T08:15:33.093Z,19.07
2018-12-14T08:18:02.828Z,17.43
2018-12-14T08:20:31.323Z,18.90
2018-12-14T08:22:59.849Z,18.27
2018-12-14T08:25:29.315Z,17.37
2018-12-14T08:27:57.839Z,17.73
2018-12-14T08:30:26.365Z,17.27
2018-12-14T08:32:54.960Z,18.00
2018-12-14T08:35:23.330Z,18.13
2018-12-14T08:37:52.705Z,17.97
2018-12-14T08:40:20.928Z,17.10
2018-12-14T08:42:49.597Z,18.53
2018-12-14T08:45:18.251Z,17.87
2018-12-14T08:47:47.298Z,17.83
2018-12-14T08:50:15.823Z,18.20
2018-12-14T08:52:45.227Z,16.73
2018-12-14T08:55:13.921Z,17.67
2018-12-14T08:57:42.565Z,16.97
2018-12-14T09:00:11.182Z,18.00
2018-12-14T09:02:39.708Z,16.37
2018-12-14T09:05:08.336Z,17.80
2018-12-14T09:07:37.181Z,17.30
2018-12-14T09:10:06.220Z,16.80
2018-12-14T09:12:34.750Z,16.97
2018-12-14T09:15:03.283Z,15.97
2018-12-14T09:17:31.541Z,17.40
2018-12-14T09:20:00.324Z,18.53
2018-12-14T09:22:29.368Z,17.57
2018-12-14T09:24:58.324Z,17.27
2018-12-14T09:27:27.359Z,17.20
2018-12-14T09:29:56.412Z,17.80
2018-12-14T09:32:24.937Z,17.00
2018-12-14T09:34:53.466Z,16.87
2018-12-14T09:37:22.412Z,18.37
2018-12-14T09:39:50.512Z,17.33
2018-12-14T09:42:20.083Z,17.87
2018-12-14T09:44:49.974Z,16.37
2018-12-14T09:47:18.604Z,17.33
2018-12-14T09:49:47.931Z,17.07
2018-12-14T09:52:17.032Z,17.30
2018-12-14T09:54:46.715Z,17.03
2018-12-14T09:57:15.103Z,17.23
2018-12-14T09:59:44.468Z,17.23
2018-12-14T10:02:13.712Z,16.47
2018-12-14T10:04:42.247Z,16.83
2018-12-14T10:07:10.592Z,16.83
2018-12-14T10:09:39.065Z,16.10
2018-12-14T10:12:07.589Z,17.20
2018-12-14T10:14:36.856Z,17.30
2018-12-14T10:17:05.803Z,15.87
2018-12-14T10:19:34.237Z,16.30
2018-12-14T10:22:02.604Z,16.23
2018-12-14T10:24:31.505Z,15.60
2018-12-14T10:27:00.553Z,15.73
2018-12-14T10:29:28.680Z,14.60
2018-12-14T10:31:57.608Z,15.57
2018-12-14T10:34:26.118Z,15.30
2018-12-14T10:36:54.753Z,15.93
2018-12-14T10:39:25.234Z,16.57
2018-12-14T10:41:54.307Z,16.23
2018-12-14T10:44:23.364Z,15.63
2018-12-14T10:46:52.409Z,16.40
2018-12-14T10:49:20.823Z,16.17
2018-12-14T10:51:49.444Z,14.60
2018-12-14T10:54:18.707Z,14.57
2018-12-14T10:56:49.012Z,15.20
2018-12-14T10:59:19.415Z,14.93
2018-12-14T11:01:54.314Z,15.20
2018-12-14T11:04:23.928Z,14.30
2018-12-14T11:06:53.560Z,15.93
2018-12-14T11:09:22.912Z,15.47
2018-12-14T11:11:52.286Z,14.87
2018-12-14T11:14:20.822Z,15.10
2018-12-14T11:16:51.531Z,15.13
2018-12-14T11:19:19.735Z,15.23
2018-12-14T11:21:48.473Z,15.13
2018-12-14T11:24:17.519Z,15.53
2018-12-14T11:26:46.386Z,15.80
2018-12-14T11:29:15.310Z,15.27
2018-12-14T11:31:43.604Z,14.87
2018-12-14T11:34:11.845Z,14.70
2018-12-14T11:36:40.360Z,15.63
2018-12-14T11:39:08.881Z,15.47
2018-12-14T11:41:38.357Z,14.90
2018-12-14T11:44:06.469Z,14.53
2018-12-14T11:46:34.697Z,15.13
2018-12-14T11:49:02.919Z,15.37
2018-12-14T11:51:32.554Z,16.03
2018-12-14T11:54:01.401Z,15.83
2018-12-14T11:56:29.912Z,14.77
2018-12-14T11:58:59.070Z,15.03
2018-12-14T12:01:27.376Z,13.80
2018-12-14T12:03:56.121Z,15.47
2018-12-14T12:06:25.274Z,15.10
2018-12-14T12:08:54.425Z,15.30
2018-12-14T12:11:22.548Z,16.17
2018-12-14T12:13:51.164Z,14.73
2018-12-14T12:16:19.773Z,14.80
2018-12-14T12:18:48.209Z,14.93
2018-12-14T12:21:18.156Z,15.40
2018-12-14T12:23:48.429Z,15.00
2018-12-14T12:26:17.456Z,16.13
2018-12-14T12:28:46.405Z,16.53
2018-12-14T12:31:15.438Z,14.37
2018-12-14T12:33:43.660Z,15.33
2018-12-14T12:36:11.921Z,16.07
2018-12-14T12:38:40.779Z,16.13
2018-12-14T12:41:09.333Z,16.67
2018-12-14T12:43:37.836Z,16.30
2018-12-14T12:46:06.095Z,16.07
2018-12-14T12:48:35.119Z,16.20
2018-12-14T12:51:05.612Z,17.13
2018-12-14T12:53:35.184Z,15.37
2018-12-14T12:56:04.152Z,17.23
2018-12-14T12:58:33.647Z,17.10
2018-12-14T13:01:03.117Z,16.30
2018-12-14T13:03:31.785Z,16.67
2018-12-14T13:06:00.427Z,16.57
2018-12-14T13:08:28.832Z,17.47
2018-12-14T13:10:59.369Z,16.60
2018-12-14T13:13:28.220Z,16.27
2018-12-14T13:15:57.675Z,14.67
2018-12-14T13:18:26.931Z,16.87
2018-12-14T13:20:55.456Z,16.87
2018-12-14T13:23:25.344Z,17.10
2018-12-14T13:25:53.864Z,17.13
2018-12-14T13:28:22.551Z,17.00
2018-12-14T13:30:51.226Z,16.17
2018-12-14T13:33:19.783Z,17.07
2018-12-14T13:35:48.275Z,17.43
2018-12-14T13:38:17.427Z,16.67
2018-12-14T13:40:46.488Z,16.57
2018-12-14T13:43:16.795Z,16.90
2018-12-14T13:45:45.084Z,17.10
2018-12-14T13:48:14.344Z,16.50
2018-12-14T13:50:42.877Z,17.17
2018-12-14T13:53:10.961Z,15.93
2018-12-14T13:55:39.408Z,16.90
2018-12-14T13:58:08.997Z,16.03
2018-12-14T14:00:38.027Z,14.27
2018-12-14T14:03:06.865Z,15.93
2018-12-14T14:05:37.899Z,16.13
2018-12-14T14:08:07.792Z,15.77
2018-12-14T14:10:36.496Z,16.17
2018-12-14T14:13:05.780Z,15.43
2018-12-14T14:15:34.502Z,15.30
2018-12-14T14:18:04.173Z,16.07
2018-12-14T14:20:32.500Z,16.80
2018-12-14T14:23:02.340Z,16.23
2018-12-14T14:25:32.581Z,16.30
2018-12-14T14:28:02.673Z,17.13
2018-12-14T14:30:32.773Z,15.30
2018-12-14T14:33:02.669Z,16.40
2018-12-14T14:35:30.882Z,16.13
2018-12-14T14:38:00.121Z,15.73
2018-12-14T14:40:29.260Z,15.40
2018-12-14T14:42:59.151Z,15.87
2018-12-14T14:45:28.306Z,16.30
2018-12-14T14:47:56.934Z,16.13
2018-12-14T14:50:26.795Z,15.37
2018-12-14T14:52:57.640Z,16.27
2018-12-14T14:55:28.157Z,16.37
2018-12-14T14:57:57.208Z,15.80
2018-12-14T15:00:29.169Z,15.90
2018-12-14T15:02:59.864Z,15.90
2018-12-14T15:05:29.781Z,16.43
2018-12-14T15:07:58.768Z,16.23
2018-12-14T15:10:29.639Z,16.53
2018-12-14T15:12:58.544Z,17.07
2018-12-14T15:15:27.531Z,15.33
2018-12-14T15:17:56.059Z,16.77
2018-12-14T15:20:26.504Z,16.57
2018-12-14T15:22:54.983Z,16.47
2018-12-14T15:25:23.795Z,15.80
2018-12-14T15:27:52.877Z,16.33
2018-12-14T15:30:21.292Z,16.00
2018-12-14T15:32:49.813Z,16.67
2018-12-14T15:35:18.032Z,16.30
2018-12-14T15:37:46.652Z,14.73
2018-12-14T15:40:16.128Z,16.83
2018-12-14T15:42:44.361Z,17.27
2018-12-14T15:45:13.274Z,16.27
2018-12-14T15:47:42.021Z,16.27
2018-12-14T15:50:11.072Z,16.17
2018-12-14T15:52:40.020Z,17.00
2018-12-14T15:55:08.173Z,16.63
2018-12-14T15:57:37.374Z,16.20
2018-12-14T16:00:07.521Z,15.93
2018-12-14T16:02:36.001Z,16.27
2018-12-14T16:05:05.256Z,16.67
2018-12-14T16:07:34.394Z,17.50
2018-12-14T16:10:03.768Z,17.07
2018-12-14T16:12:33.898Z,15.27
2018-12-14T16:15:02.774Z,15.77
2018-12-14T16:17:31.440Z,15.60
2018-12-14T16:20:01.285Z,16.10
2018-12-14T16:22:30.345Z,16.33
2018-12-14T16:24:59.305Z,15.70
2018-12-14T16:27:28.884Z,15.80
2018-12-14T16:29:57.032Z,16.27
2018-12-14T16:32:25.510Z,16.37
2018-12-14T16:34:54.011Z,16.07
2018-12-14T16:37:22.222Z,16.47
2018-12-14T16:39:52.225Z,15.83
2018-12-14T16:42:21.180Z,15.73
2018-12-14T16:44:49.909Z,17.00
2018-12-14T16:47:18.039Z,16.07
2018-12-14T16:49:48.820Z,14.13
2018-12-14T16:52:18.520Z,16.17
2018-12-14T16:54:47.561Z,16.00
2018-12-14T16:57:15.809Z,15.77
2018-12-14T16:59:45.227Z,16.37
2018-12-14T17:02:13.681Z,15.23
2018-12-14T17:04:42.188Z,15.97
2018-12-14T17:07:10.704Z,16.47
2018-12-14T17:09:39.139Z,15.37
2018-12-14T17:12:07.372Z,16.97
2018-12-14T17:14:35.976Z,16.23
2018-12-14T17:17:04.596Z,16.03
2018-12-14T17:19:33.028Z,18.77
2018-12-14T17:22:01.450Z,16.13
2018-12-14T17:24:30.809Z,15.90
2018-12-14T17:26:59.982Z,16.87
2018-12-14T17:29:28.383Z,15.40
2018-12-14T17:31:56.911Z,15.63
2018-12-14T17:34:25.683Z,16.20
2018-12-14T17:36:54.691Z,16.30
2018-12-14T17:39:24.262Z,15.50
2018-12-14T17:41:54.245Z,16.47
2018-12-14T17:44:22.971Z,15.53
2018-12-14T17:46:51.718Z,16.23
2018-12-14T17:49:20.245Z,17.43
2018-12-14T17:51:48.948Z,16.37
2018-12-14T17:54:18.131Z,16.53
2018-12-14T17:56:47.913Z,16.63
2018-12-14T17:59:16.436Z,15.37
2018-12-14T18:01:44.936Z,16.67
2018-12-14T18:04:13.580Z,17.17
2018-12-14T18:06:42.119Z,16.97
2018-12-14T18:09:10.903Z,16.53
2018-12-14T18:11:39.138Z,16.07
2018-12-14T18:14:07.679Z,16.57
2018-12-14T18:16:36.950Z,17.43
2018-12-14T18:19:05.476Z,17.47
2018-12-14T18:21:34.097Z,16.73
2018-12-14T18:24:02.209Z,16.83
2018-12-14T18:26:30.717Z,15.87
2018-12-14T18:28:59.891Z,16.80
2018-12-14T18:31:28.843Z,16.33
2018-12-14T18:33:57.880Z,16.70
2018-12-14T18:36:26.760Z,17.47
2018-12-14T18:38:55.351Z,14.60
2018-12-14T18:41:24.289Z,16.93
2018-12-14T18:43:52.795Z,16.93
2018-12-14T18:46:21.012Z,16.93
2018-12-14T18:48:50.502Z,15.97
2018-12-14T18:51:19.027Z,16.60
2018-12-14T18:53:52.353Z,16.63
2018-12-14T18:56:21.488Z,14.43
2018-12-14T18:58:50.136Z,17.67
2018-12-14T19:01:18.664Z,17.03
2018-12-14T19:03:47.921Z,17.57
2018-12-14T19:06:16.659Z,16.47
2018-12-14T19:08:45.019Z,15.77
2018-12-14T19:11:14.236Z,16.93
2018-12-14T19:13:42.864Z,16.83
2018-12-14T19:16:11.486Z,16.17
2018-12-14T19:18:40.332Z,17.00
2018-12-14T19:21:09.204Z,18.63
2018-12-14T19:23:38.427Z,18.00
2018-12-14T19:26:06.945Z,16.87
2018-12-14T19:28:35.233Z,17.93
2018-12-14T19:31:03.896Z,16.57
2018-12-14T19:33:34.802Z,18.20
2018-12-14T19:36:04.490Z,17.40
2018-12-14T19:38:34.184Z,17.87
2018-12-14T19:41:03.223Z,17.63
2018-12-14T19:43:31.742Z,16.63
2018-12-14T19:46:06.355Z,16.27
2018-12-14T19:48:32.351Z,15.73
2018-12-14T19:51:01.406Z,16.60
2018-12-14T19:53:30.860Z,17.57
2018-12-14T19:55:58.975Z,16.77
2018-12-14T19:58:27.493Z,18.53
2018-12-14T20:00:56.002Z,17.57
2018-12-14T20:03:24.758Z,17.13
2018-12-14T20:05:53.049Z,17.50
2018-12-14T20:08:22.124Z,17.57
2018-12-14T20:10:52.004Z,18.20
2018-12-14T20:13:22.733Z,15.90
2018-12-14T20:15:57.486Z,17.83
2018-12-14T20:18:23.845Z,16.57
2018-12-14T20:20:52.903Z,17.63
2018-12-14T20:23:21.939Z,18.10
2018-12-14T20:25:50.884Z,18.57
2018-12-14T20:28:20.545Z,16.70
2018-12-14T20:30:48.884Z,17.50
2018-12-14T20:33:17.824Z,16.87
2018-12-14T20:35:47.517Z,16.60
2018-12-14T20:38:16.227Z,16.97
2018-12-14T20:40:44.752Z,17.03
2018-12-14T20:43:13.703Z,16.53
2018-12-14T20:45:43.884Z,17.93
2018-12-14T20:48:13.048Z,15.53
2018-12-14T20:50:42.087Z,14.73
2018-12-14T20:53:10.714Z,13.83
2018-12-14T20:55:39.224Z,13.67
2018-12-14T20:58:08.199Z,13.90
2018-12-14T21:00:36.613Z,12.53
2018-12-14T21:03:05.140Z,12.87
2018-12-14T21:05:33.939Z,12.30
2018-12-14T21:08:03.757Z,13.20
2018-12-14T21:10:32.704Z,12.60
2018-12-14T21:13:01.748Z,13.53
2018-12-14T21:15:30.477Z,12.50
2018-12-14T21:17:59.331Z,18.60
2018-12-14T21:20:27.841Z,12.37
2018-12-14T21:22:56.475Z,12.23
2018-12-14T21:25:25.840Z,12.10
2018-12-14T21:27:55.233Z,11.23
2018-12-14T21:30:24.640Z,11.43
2018-12-14T21:32:54.468Z,10.83
2018-12-14T21:35:23.049Z,11.10
2018-12-14T21:37:52.119Z,10.93
2018-12-14T21:40:20.347Z,11.00
2018-12-14T21:42:50.948Z,11.10
2018-12-14T21:45:20.081Z,10.90
2018-12-14T21:47:48.316Z,10.73
2018-12-14T21:50:17.357Z,10.67
2018-12-14T21:52:46.723Z,11.43
2018-12-14T21:55:15.143Z,11.83
2018-12-14T21:57:43.668Z,12.43
2018-12-14T22:00:12.820Z,9.67
2018-12-14T22:02:43.123Z,11.17
2018-12-14T22:05:12.879Z,10.33
2018-12-14T22:07:41.234Z,11.33
2018-12-14T22:10:09.488Z,10.03
2018-12-14T22:12:37.707Z,9.27
2018-12-14T22:15:06.888Z,9.90
2018-12-14T22:17:35.121Z,9.37
2018-12-14T22:20:04.686Z,10.37
2018-12-14T22:22:33.316Z,8.40
2018-12-14T22:25:01.741Z,9.70
2018-12-14T22:27:30.262Z,12.03
2018-12-14T22:30:00.281Z,9.87
2018-12-14T22:32:30.025Z,8.50
2018-12-14T22:34:58.338Z,7.90
2018-12-14T22:37:29.117Z,8.87
2018-12-14T22:39:59.980Z,10.20
2018-12-14T22:42:28.514Z,8.67
2018-12-14T22:44:57.456Z,8.23
2018-12-14T22:47:26.923Z,7.90
2018-12-14T22:49:57.120Z,7.47
2018-12-14T22:52:25.637Z,7.63
2018-12-14T22:54:55.432Z,7.93
2018-12-14T22:57:23.844Z,7.83
2018-12-14T22:59:52.265Z,8.27
2018-12-14T23:02:20.700Z,7.77
2018-12-14T23:04:50.781Z,8.53
2018-12-14T23:07:19.201Z,8.17
2018-12-14T23:09:47.383Z,8.10
2018-12-14T23:12:15.729Z,8.67
2018-12-14T23:14:44.463Z,8.57
2018-12-14T23:17:13.014Z,9.23
2018-12-14T23:19:42.036Z,8.80
2018-12-14T23:22:11.189Z,8.97
2018-12-14T23:24:40.239Z,8.50
2018-12-14T23:27:08.859Z,9.00
2018-12-14T23:29:37.822Z,8.87
2018-12-14T23:32:06.899Z,9.00
2018-12-14T23:34:35.803Z,9.17
2018-12-14T23:37:04.856Z,7.77
2018-12-14T23:39:33.240Z,9.97
2018-12-14T23:42:01.797Z,9.20
2018-12-14T23:44:30.734Z,9.60
2018-12-14T23:47:00.007Z,8.93
2018-12-14T23:49:29.992Z,9.77
2018-12-14T23:51:58.921Z,9.43
2018-12-14T23:54:27.913Z,9.77
2018-12-14T23:56:56.920Z,9.07
2018-12-14T23:59:27.220Z,9.20
